createdAt,value
2018-12-15T00:00:29.418Z,2.20
2018-12-15T00:02:55.394Z,2.00
2018-12-15T00:05:21.374Z,2.10
2018-12-15T00:07:47.368Z,2.20
2018-12-15T00:10:13.364Z,2.20
2018-12-15T00:12:39.357Z,2.40
2018-12-15T00:15:05.333Z,2.40
2018-12-15T00:17:31.320Z,2.10
2018-12-15T00:19:57.301Z,2.20
2018-12-15T00:22:23.307Z,2.00
2018-12-15T00:24:49.288Z,2.10
2018-12-15T00:27:15.280Z,1.80
2018-12-15T00:29:41.274Z,1.70
2018-12-15T00:32:07.314Z,1.80
2018-12-15T00:34:33.337Z,1.60
2018-12-15T00:36:59.360Z,1.80
2018-12-15T00:39:28.702Z,1.90
2018-12-15T00:41:54.686Z,2.10
2018-12-15T00:44:20.705Z,2.20
2018-12-15T00:46:46.729Z,2.40
2018-12-15T00:49:12.769Z,2.40
2018-12-15T00:51:38.733Z,2.50
2018-12-15T00:54:04.728Z,2.40
2018-12-15T00:56:30.728Z,2.40
2018-12-15T00:58:56.709Z,2.50
2018-12-15T01:01:22.676Z,2.60
2018-12-15T01:03:55.620Z,2.60
2018-12-15T01:06:21.585Z,2.70
2018-12-15T01:08:47.600Z,2.70
2018-12-15T01:11:13.606Z,2.70
2018-12-15T01:13:39.609Z,2.20
2018-12-15T01:16:05.629Z,2.50
2018-12-15T01:18:31.661Z,2.60
2018-12-15T01:20:57.678Z,2.50
2018-12-15T01:23:23.653Z,2.30
2018-12-15T01:25:49.669Z,2.50
2018-12-15T01:28:15.653Z,2.40
2018-12-15T01:30:41.621Z,2.50
2018-12-15T01:33:07.604Z,2.40
2018-12-15T01:35:33.614Z,2.30
2018-12-15T01:37:59.593Z,2.30
2018-12-15T01:40:25.609Z,2.40
2018-12-15T01:42:51.591Z,2.40
2018-12-15T01:45:17.598Z,2.20
2018-12-15T01:47:43.585Z,2.20
2018-12-15T01:50:09.568Z,2.00
2018-12-15T01:52:35.634Z,1.80
2018-12-15T01:55:01.607Z,2.00
2018-12-15T01:57:27.581Z,2.20
2018-12-15T01:59:53.571Z,2.30
2018-12-15T02:02:19.581Z,2.20
2018-12-15T02:04:45.558Z,2.40
2018-12-15T02:07:11.569Z,2.50
2018-12-15T02:09:37.552Z,2.60
2018-12-15T02:12:03.531Z,2.30
2018-12-15T02:14:29.575Z,2.30
2018-12-15T02:16:55.582Z,2.50
2018-12-15T02:19:21.618Z,2.40
2018-12-15T02:21:47.616Z,2.50
2018-12-15T02:24:13.620Z,2.60
2018-12-15T02:26:39.602Z,2.30
2018-12-15T02:29:05.562Z,2.30
2018-12-15T02:31:31.576Z,2.40
2018-12-15T02:33:57.539Z,2.50
2018-12-15T02:36:23.527Z,2.60
2018-12-15T02:38:49.485Z,2.60
2018-12-15T02:41:15.441Z,2.70
2018-12-15T02:43:41.439Z,2.80
2018-12-15T02:46:07.434Z,2.80
2018-12-15T02:48:33.412Z,2.80
2018-12-15T02:50:59.385Z,2.70
2018-12-15T02:53:25.438Z,2.80
2018-12-15T02:55:51.417Z,2.60
2018-12-15T02:58:17.409Z,2.80
2018-12-15T03:00:43.403Z,2.80
2018-12-15T03:03:09.385Z,2.80
2018-12-15T03:05:35.386Z,2.90
2018-12-15T03:08:01.393Z,2.90
2018-12-15T03:10:27.363Z,2.90
2018-12-15T03:12:53.348Z,2.90
2018-12-15T03:15:19.344Z,2.80
2018-12-15T03:17:48.864Z,2.70
2018-12-15T03:20:11.376Z,2.50
2018-12-15T03:22:37.387Z,2.70
2018-12-15T03:25:03.360Z,2.80
2018-12-15T03:27:29.379Z,2.80
2018-12-15T03:29:55.462Z,2.70
2018-12-15T03:32:21.532Z,2.60
2018-12-15T03:34:47.519Z,2.60
2018-12-15T03:37:13.518Z,2.70
2018-12-15T03:39:39.509Z,2.60
2018-12-15T03:42:05.503Z,2.40
2018-12-15T03:44:31.493Z,2.60
2018-12-15T03:46:57.454Z,2.60
2018-12-15T03:49:23.471Z,2.70
2018-12-15T03:51:49.462Z,2.80
2018-12-15T03:54:15.422Z,2.80
2018-12-15T03:56:41.436Z,2.80
2018-12-15T03:59:07.461Z,2.90
2018-12-15T04:01:33.419Z,2.90
2018-12-15T04:03:59.404Z,2.80
2018-12-15T04:06:25.379Z,2.80
2018-12-15T04:08:51.365Z,2.80
2018-12-15T04:11:17.358Z,2.80
2018-12-15T04:13:43.346Z,2.90
2018-12-15T04:16:09.321Z,2.90
2018-12-15T04:18:35.290Z,2.60
2018-12-15T04:21:01.253Z,2.20
2018-12-15T04:23:27.226Z,2.30
2018-12-15T04:25:53.200Z,2.10
2018-12-15T04:28:19.185Z,2.10
2018-12-15T04:30:45.241Z,1.80
2018-12-15T04:33:11.242Z,1.90
2018-12-15T04:35:37.219Z,1.90
2018-12-15T04:38:03.204Z,2.00
2018-12-15T04:40:29.192Z,2.00
2018-12-15T04:42:55.162Z,2.20
2018-12-15T04:45:21.157Z,2.40
2018-12-15T04:47:47.115Z,2.40
2018-12-15T04:50:13.102Z,2.20
2018-12-15T04:52:39.078Z,2.20
2018-12-15T04:55:05.085Z,2.20
2018-12-15T04:57:31.066Z,2.20
2018-12-15T04:59:57.070Z,2.20
2018-12-15T05:02:23.048Z,2.20
2018-12-15T05:04:49.049Z,2.30
2018-12-15T05:07:15.025Z,2.30
2018-12-15T05:09:41.000Z,2.30
2018-12-15T05:12:07.037Z,2.00
2018-12-15T05:14:33.019Z,2.10
2018-12-15T05:16:58.991Z,2.20
2018-12-15T05:19:24.958Z,2.10
2018-12-15T05:21:50.935Z,1.90
2018-12-15T05:24:16.970Z,1.80
2018-12-15T05:26:42.945Z,1.60
2018-12-15T05:29:08.948Z,1.60
2018-12-15T05:31:34.949Z,1.80
2018-12-15T05:34:00.970Z,1.50
2018-12-15T05:36:27.024Z,1.70
2018-12-15T05:38:53.045Z,1.90
2018-12-15T05:41:19.071Z,2.00
2018-12-15T05:43:45.053Z,1.90
2018-12-15T05:46:11.017Z,1.40
2018-12-15T05:48:37.044Z,1.50
2018-12-15T05:51:03.045Z,1.80
2018-12-15T05:53:29.045Z,1.90
2018-12-15T05:55:55.059Z,2.20
2018-12-15T05:58:21.041Z,2.20
2018-12-15T06:00:47.037Z,2.20
2018-12-15T06:03:13.047Z,2.00
2018-12-15T06:05:39.071Z,2.00
2018-12-15T06:08:05.045Z,1.90
2018-12-15T06:10:31.067Z,2.00
2018-12-15T06:12:57.064Z,1.90
2018-12-15T06:15:23.036Z,1.90
2018-12-15T06:17:49.066Z,2.10
2018-12-15T06:20:15.047Z,2.00
2018-12-15T06:22:41.058Z,2.20
2018-12-15T06:25:07.114Z,1.90
2018-12-15T06:27:33.113Z,1.80
2018-12-15T06:29:59.061Z,1.90
2018-12-15T06:32:25.082Z,1.50
2018-12-15T06:34:51.083Z,1.60
2018-12-15T06:37:17.049Z,1.40
2018-12-15T06:39:43.089Z,1.40
2018-12-15T06:42:09.097Z,1.70
2018-12-15T06:44:35.084Z,1.60
2018-12-15T06:47:01.077Z,1.90
2018-12-15T06:49:27.082Z,2.10
2018-12-15T06:51:53.051Z,2.00
2018-12-15T06:54:19.036Z,2.10
2018-12-15T06:56:45.076Z,1.70
2018-12-15T06:59:11.050Z,1.70
2018-12-15T07:01:37.036Z,1.70
2018-12-15T07:04:03.034Z,1.50
2018-12-15T07:06:29.125Z,1.70
2018-12-15T07:08:55.108Z,1.80
2018-12-15T07:11:21.166Z,1.90
2018-12-15T07:13:47.249Z,1.60
2018-12-15T07:16:13.230Z,1.70
2018-12-15T07:18:44.649Z,1.50
2018-12-15T07:21:05.237Z,1.50
2018-12-15T07:23:31.209Z,1.60
2018-12-15T07:25:57.183Z,1.60
2018-12-15T07:28:23.346Z,1.40
2018-12-15T07:30:49.323Z,1.60
2018-12-15T07:33:15.342Z,1.90
2018-12-15T07:35:41.338Z,2.00
2018-12-15T07:38:07.353Z,1.80
2018-12-15T07:40:33.326Z,1.80
2018-12-15T07:42:59.297Z,2.10
2018-12-15T07:45:25.261Z,1.70
2018-12-15T07:47:51.247Z,1.60
2018-12-15T07:50:17.241Z,1.30
2018-12-15T07:52:43.248Z,1.40
2018-12-15T07:55:09.859Z,1.40
2018-12-15T07:57:35.914Z,1.50
2018-12-15T08:00:01.933Z,1.30
2018-12-15T08:02:27.958Z,1.30
2018-12-15T08:04:53.917Z,1.20
2018-12-15T08:07:19.925Z,1.30
2018-12-15T08:09:45.931Z,1.30
2018-12-15T08:12:17.898Z,1.20
2018-12-15T08:14:43.922Z,1.10
2018-12-15T08:17:09.905Z,1.20
2018-12-15T08:19:35.905Z,1.40
2018-12-15T08:22:01.881Z,1.40
2018-12-15T08:24:27.893Z,1.50
2018-12-15T08:26:53.877Z,1.70
2018-12-15T08:29:19.888Z,1.70
2018-12-15T08:31:45.949Z,1.60
2018-12-15T08:34:11.984Z,1.60
2018-12-15T08:36:37.974Z,1.70
2018-12-15T08:39:03.993Z,1.80
2018-12-15T08:41:30.122Z,1.70
2018-12-15T08:43:56.149Z,1.90
2018-12-15T08:46:22.135Z,2.20
2018-12-15T08:48:48.152Z,2.10
2018-12-15T08:51:14.157Z,2.00
2018-12-15T08:53:40.162Z,2.20
2018-12-15T08:56:06.183Z,2.20
2018-12-15T08:58:32.213Z,2.30
2018-12-15T09:00:58.213Z,2.30
2018-12-15T09:03:24.249Z,2.40
2018-12-15T09:05:50.284Z,2.20
2018-12-15T09:08:16.325Z,2.20
2018-12-15T09:10:42.394Z,2.40
2018-12-15T09:13:08.438Z,2.50
2018-12-15T09:15:34.499Z,2.60
2018-12-15T09:18:00.526Z,2.70
2018-12-15T09:20:26.585Z,2.80
2018-12-15T09:22:52.615Z,2.90
2018-12-15T09:25:22.260Z,2.90
2018-12-15T09:27:48.280Z,2.90
2018-12-15T09:30:14.301Z,3.00
2018-12-15T09:32:40.313Z,2.60
2018-12-15T09:35:06.305Z,2.40
2018-12-15T09:37:32.306Z,2.40
2018-12-15T09:39:58.310Z,2.60
2018-12-15T09:42:24.302Z,2.70
2018-12-15T09:44:50.334Z,2.70
2018-12-15T09:47:16.370Z,2.80
2018-12-15T09:49:42.401Z,2.60
2018-12-15T09:52:08.388Z,2.80
2018-12-15T09:54:34.341Z,2.80
2018-12-15T09:57:00.345Z,2.90
2018-12-15T09:59:26.337Z,3.00
2018-12-15T10:01:52.358Z,2.90
2018-12-15T10:04:18.326Z,3.00
2018-12-15T10:06:44.325Z,3.00
2018-12-15T10:09:10.307Z,3.10
2018-12-15T10:11:36.266Z,3.20
2018-12-15T10:14:02.269Z,3.10
2018-12-15T10:16:28.349Z,3.20
2018-12-15T10:18:54.359Z,3.20
2018-12-15T10:21:20.354Z,3.30
2018-12-15T10:23:46.352Z,3.30
2018-12-15T10:26:12.329Z,3.30
2018-12-15T10:28:38.310Z,3.20
2018-12-15T10:31:10.277Z,3.30
2018-12-15T10:33:36.289Z,2.80
2018-12-15T10:36:02.278Z,2.40
2018-12-15T10:38:28.269Z,2.30
2018-12-15T10:40:54.269Z,1.90
2018-12-15T10:43:20.250Z,2.10
2018-12-15T10:45:46.256Z,2.40
2018-12-15T10:48:12.230Z,2.40
2018-12-15T10:50:38.215Z,2.60
2018-12-15T10:53:04.258Z,2.90
2018-12-15T10:55:30.230Z,2.90
2018-12-15T10:57:56.196Z,3.00
2018-12-15T11:00:23.048Z,2.70
2018-12-15T11:02:49.047Z,3.00
2018-12-15T11:05:15.019Z,3.10
2018-12-15T11:07:40.958Z,3.10
2018-12-15T11:10:06.918Z,3.30
2018-12-15T11:12:32.926Z,3.30
2018-12-15T11:14:58.954Z,3.30
2018-12-15T11:17:24.963Z,3.10
2018-12-15T11:19:50.959Z,2.90
2018-12-15T11:22:17.026Z,3.00
2018-12-15T11:24:43.013Z,3.20
2018-12-15T11:27:09.047Z,3.20
2018-12-15T11:29:35.127Z,3.30
2018-12-15T11:32:01.093Z,3.10
2018-12-15T11:34:27.072Z,3.10
2018-12-15T11:36:53.059Z,2.90
2018-12-15T11:39:19.033Z,3.00
2018-12-15T11:41:45.010Z,3.30
2018-12-15T11:44:11.022Z,3.10
2018-12-15T11:46:37.038Z,3.20
2018-12-15T11:49:03.025Z,2.60
2018-12-15T11:51:28.993Z,3.10
2018-12-15T11:53:54.972Z,3.20
2018-12-15T11:56:20.989Z,3.10
2018-12-15T11:58:46.969Z,3.20
2018-12-15T12:01:12.929Z,3.30
2018-12-15T12:03:38.990Z,3.20
2018-12-15T12:06:05.024Z,3.30
2018-12-15T12:08:33.010Z,3.30
2018-12-15T12:10:59.026Z,3.10
2018-12-15T12:13:25.012Z,3.20
2018-12-15T12:15:51.034Z,3.10
2018-12-15T12:18:16.999Z,2.90
2018-12-15T12:20:43.016Z,3.10
2018-12-15T12:23:09.006Z,3.20
2018-12-15T12:25:35.001Z,2.70
2018-12-15T12:28:00.981Z,3.20
2018-12-15T12:30:27.006Z,3.20
2018-12-15T12:32:52.994Z,3.20
2018-12-15T12:35:18.978Z,2.80
2018-12-15T12:37:44.955Z,3.10
2018-12-15T12:40:11.023Z,3.10
2018-12-15T12:42:37.061Z,3.00
2018-12-15T12:45:03.045Z,3.20
2018-12-15T12:47:29.068Z,3.20
2018-12-15T12:49:57.034Z,2.80
2018-12-15T12:52:21.094Z,3.10
2018-12-15T12:54:47.093Z,2.90
2018-12-15T12:57:13.099Z,2.70
2018-12-15T12:59:39.099Z,3.00
2018-12-15T13:02:05.087Z,2.60
2018-12-15T13:04:31.076Z,2.80
2018-12-15T13:06:57.109Z,2.60
2018-12-15T13:09:23.167Z,2.60
2018-12-15T13:11:49.151Z,2.70
2018-12-15T13:14:15.166Z,2.80
2018-12-15T13:16:41.204Z,2.70
2018-12-15T13:19:07.240Z,2.60
2018-12-15T13:21:33.330Z,2.60
2018-12-15T13:23:59.354Z,2.70
2018-12-15T13:26:25.337Z,2.80
2018-12-15T13:28:51.351Z,2.60
2018-12-15T13:31:17.343Z,2.70
2018-12-15T13:33:43.379Z,2.90
2018-12-15T13:36:10.306Z,2.70
2018-12-15T13:38:36.421Z,2.80
2018-12-15T13:41:02.495Z,2.80
2018-12-15T13:43:28.559Z,3.00
2018-12-15T13:45:54.689Z,2.90
2018-12-15T13:48:21.265Z,2.40
2018-12-15T13:50:46.841Z,2.10
2018-12-15T13:53:12.822Z,2.40
2018-12-15T13:55:38.864Z,2.30
2018-12-15T13:58:05.150Z,2.60
2018-12-15T14:00:31.181Z,2.70
2018-12-15T14:02:57.400Z,2.50
2018-12-15T14:05:23.389Z,2.30
2018-12-15T14:07:49.467Z,2.50
2018-12-15T14:10:18.315Z,2.70
2018-12-15T14:12:45.215Z,2.60
2018-12-15T14:15:11.734Z,2.50
2018-12-15T14:17:38.194Z,2.50
2018-12-15T14:20:04.918Z,2.30
2018-12-15T14:22:31.531Z,2.40
2018-12-15T14:24:58.892Z,2.40
2018-12-15T14:27:25.245Z,2.40
2018-12-15T14:29:51.677Z,2.40
2018-12-15T14:32:17.923Z,2.40
2018-12-15T14:34:44.206Z,2.50
2018-12-15T14:37:11.235Z,2.30
2018-12-15T14:39:37.527Z,2.60
2018-12-15T14:42:03.762Z,2.50
2018-12-15T14:44:29.975Z,2.50
2018-12-15T14:46:56.458Z,2.60
2018-12-15T14:49:22.653Z,2.70
2018-12-15T14:51:48.889Z,2.50
2018-12-15T14:54:15.305Z,2.70
2018-12-15T14:56:41.684Z,2.60
2018-12-15T14:59:08.356Z,2.60
2018-12-15T15:01:34.806Z,2.30
2018-12-15T15:04:01.088Z,2.40
2018-12-15T15:06:27.326Z,2.30
2018-12-15T15:08:53.719Z,2.30
2018-12-15T15:11:20.038Z,2.50
2018-12-15T15:13:46.464Z,2.50
2018-12-15T15:16:12.778Z,2.50
2018-12-15T15:18:39.121Z,2.60
2018-12-15T15:21:05.652Z,2.30
2018-12-15T15:23:31.809Z,2.20
2018-12-15T15:25:59.594Z,2.40
2018-12-15T15:28:24.550Z,2.50
2018-12-15T15:30:50.991Z,2.50
2018-12-15T15:33:17.472Z,2.30
2018-12-15T15:35:43.849Z,2.20
2018-12-15T15:38:10.211Z,2.00
2018-12-15T15:40:36.610Z,2.20
2018-12-15T15:43:02.942Z,2.10
2018-12-15T15:45:29.276Z,2.20
2018-12-15T15:47:55.557Z,2.10
2018-12-15T15:50:21.935Z,2.10
2018-12-15T15:52:48.167Z,2.20
2018-12-15T15:55:14.418Z,2.30
2018-12-15T15:57:40.614Z,2.20
2018-12-15T16:00:06.974Z,2.00
2018-12-15T16:02:33.436Z,2.10
2018-12-15T16:04:59.669Z,2.00
2018-12-15T16:07:25.901Z,2.00
2018-12-15T16:09:52.267Z,2.10
2018-12-15T16:12:18.585Z,1.70
2018-12-15T16:14:45.072Z,2.00
2018-12-15T16:17:11.360Z,2.00
2018-12-15T16:19:37.758Z,2.10
2018-12-15T16:22:04.150Z,2.20
2018-12-15T16:24:30.530Z,2.30
2018-12-15T16:26:56.929Z,2.30
2018-12-15T16:29:23.295Z,2.20
2018-12-15T16:31:49.691Z,2.20
2018-12-15T16:34:16.025Z,2.30
2018-12-15T16:36:42.353Z,2.20
2018-12-15T16:39:08.624Z,2.30
2018-12-15T16:41:34.908Z,1.90
2018-12-15T16:44:01.234Z,2.00
2018-12-15T16:46:27.551Z,2.10
2018-12-15T16:48:53.827Z,2.10
2018-12-15T16:51:20.145Z,2.10
2018-12-15T16:53:46.375Z,1.90
2018-12-15T16:56:12.775Z,1.90
2018-12-15T16:58:39.060Z,2.00
2018-12-15T17:01:05.324Z,1.80
2018-12-15T17:03:31.796Z,1.90
2018-12-15T17:05:58.004Z,1.80
2018-12-15T17:08:24.754Z,2.00
2018-12-15T17:10:51.013Z,2.00
2018-12-15T17:13:17.334Z,2.10
2018-12-15T17:15:43.596Z,2.10
2018-12-15T17:18:09.978Z,2.00
2018-12-15T17:20:36.576Z,1.80
2018-12-15T17:23:02.976Z,1.80
2018-12-15T17:25:29.263Z,1.80
2018-12-15T17:28:18.753Z,1.60
2018-12-15T17:30:45.033Z,1.70
2018-12-15T17:33:11.324Z,1.60
2018-12-15T17:35:37.583Z,1.80
2018-12-15T17:38:04.167Z,1.70
2018-12-15T17:40:30.486Z,1.70
2018-12-15T17:42:56.737Z,1.80
2018-12-15T17:45:23.040Z,1.80
2018-12-15T17:47:49.500Z,1.80
2018-12-15T17:50:16.914Z,1.80
2018-12-15T17:52:43.149Z,1.80
2018-12-15T17:55:09.605Z,1.60
2018-12-15T17:57:36.049Z,1.80
2018-12-15T18:00:02.170Z,1.80
2018-12-15T18:02:28.610Z,1.80
2018-12-15T18:04:55.120Z,1.80
2018-12-15T18:07:21.484Z,1.80
2018-12-15T18:09:47.714Z,1.70
2018-12-15T18:12:14.113Z,1.80
2018-12-15T18:14:40.777Z,1.80
2018-12-15T18:17:07.054Z,1.90
2018-12-15T18:19:33.424Z,1.80
2018-12-15T18:21:59.755Z,1.90
2018-12-15T18:24:26.081Z,1.40
2018-12-15T18:26:52.413Z,1.60
2018-12-15T18:29:18.762Z,1.50
2018-12-15T18:31:45.098Z,1.60
2018-12-15T18:34:11.584Z,1.70
2018-12-15T18:36:37.947Z,1.50
2018-12-15T18:39:04.667Z,1.50
2018-12-15T18:41:31.024Z,1.50
2018-12-15T18:43:57.310Z,1.30
2018-12-15T18:46:23.636Z,1.40
2018-12-15T18:48:49.943Z,1.50
2018-12-15T18:51:16.595Z,1.60
2018-12-15T18:53:42.422Z,1.40
2018-12-15T18:56:08.495Z,1.30
2018-12-15T18:58:34.599Z,1.40
2018-12-15T19:01:00.578Z,1.40
2018-12-15T19:03:26.617Z,1.50
2018-12-15T19:05:52.578Z,1.40
2018-12-15T19:08:18.554Z,1.30
2018-12-15T19:10:45.896Z,1.30
2018-12-15T19:13:11.661Z,1.20
2018-12-15T19:15:37.697Z,1.40
2018-12-15T19:18:03.706Z,1.30
2018-12-15T19:20:29.768Z,1.40
2018-12-15T19:22:56.701Z,1.20
2018-12-15T19:25:22.726Z,1.00
2018-12-15T19:27:48.706Z,1.20
2018-12-15T19:30:16.786Z,1.30
2018-12-15T19:32:42.789Z,1.00
2018-12-15T19:35:08.798Z,1.00
2018-12-15T19:37:34.787Z,1.10
2018-12-15T19:40:00.785Z,1.20
2018-12-15T19:42:26.790Z,1.20
2018-12-15T19:44:52.792Z,1.30
2018-12-15T19:47:18.977Z,1.40
2018-12-15T19:49:45.054Z,1.30
2018-12-15T19:52:11.171Z,1.10
2018-12-15T19:54:37.191Z,1.30
2018-12-15T19:57:03.158Z,1.30
2018-12-15T19:59:29.270Z,1.10
2018-12-15T20:01:55.641Z,1.10
2018-12-15T20:04:21.630Z,1.20
2018-12-15T20:06:48.013Z,0.90
2018-12-15T20:09:14.125Z,0.60
2018-12-15T20:11:40.191Z,0.90
2018-12-15T20:14:06.323Z,0.90
2018-12-15T20:16:32.422Z,1.00
2018-12-15T20:18:58.453Z,1.00
2018-12-15T20:21:24.514Z,1.20
2018-12-15T20:23:50.532Z,1.30
2018-12-15T20:26:16.510Z,1.30
2018-12-15T20:28:42.479Z,1.00
2018-12-15T20:31:08.457Z,1.00
2018-12-15T20:33:34.656Z,0.90
2018-12-15T20:36:00.677Z,0.60
2018-12-15T20:38:26.649Z,0.60
2018-12-15T20:40:52.713Z,0.70
2018-12-15T20:43:18.681Z,0.60
2018-12-15T20:45:44.669Z,0.70
2018-12-15T20:48:11.858Z,0.50
2018-12-15T20:50:39.635Z,0.30
2018-12-15T20:53:05.776Z,0.40
2018-12-15T20:55:31.754Z,0.10
2018-12-15T20:57:59.081Z,0.20
2018-12-15T21:00:25.222Z,0.10
2018-12-15T21:02:52.192Z,0.30
2018-12-15T21:05:18.186Z,0.00
2018-12-15T21:07:44.172Z,-0.20
2018-12-15T21:10:10.155Z,-0.10
2018-12-15T21:12:36.112Z,0.20
2018-12-15T21:15:04.913Z,0.20
2018-12-15T21:17:30.909Z,0.10
2018-12-15T21:19:56.990Z,0.00
2018-12-15T21:22:22.993Z,0.20
2018-12-15T21:24:48.964Z,0.30
2018-12-15T21:27:14.953Z,0.20
2018-12-15T21:29:40.949Z,0.50
2018-12-15T21:32:06.935Z,0.60
2018-12-15T21:34:33.010Z,0.40
2018-12-15T21:36:58.982Z,0.60
2018-12-15T21:39:24.955Z,0.70
2018-12-15T21:41:50.931Z,0.70
2018-12-15T21:44:16.903Z,0.60
2018-12-15T21:46:42.979Z,0.70
2018-12-15T21:49:08.967Z,0.80
2018-12-15T21:51:34.957Z,0.80
2018-12-15T21:54:00.967Z,0.70
2018-12-15T21:56:26.957Z,0.80
2018-12-15T21:58:52.922Z,0.40
2018-12-15T22:01:18.914Z,0.40
2018-12-15T22:03:44.882Z,0.40
2018-12-15T22:06:10.872Z,0.00
2018-12-15T22:08:36.830Z,-0.10
2018-12-15T22:11:02.802Z,0.10
2018-12-15T22:13:28.775Z,0.00
2018-12-15T22:15:54.771Z,0.00
2018-12-15T22:18:20.725Z,0.10
2018-12-15T22:20:46.710Z,-0.10
2018-12-15T22:23:12.729Z,0.10
2018-12-15T22:25:38.710Z,0.20
2018-12-15T22:28:04.703Z,0.30
2018-12-15T22:30:30.748Z,0.30
2018-12-15T22:32:56.714Z,0.40
2018-12-15T22:35:22.705Z,0.30
2018-12-15T22:37:48.690Z,0.30
2018-12-15T22:40:14.663Z,0.30
2018-12-15T22:42:40.638Z,0.00
2018-12-15T22:45:06.640Z,0.10
2018-12-15T22:47:32.640Z,0.10
2018-12-15T22:49:58.621Z,-0.30
2018-12-15T22:52:25.256Z,-0.40
2018-12-15T22:54:51.237Z,-0.40
2018-12-15T22:57:17.269Z,-0.30
2018-12-15T22:59:43.253Z,-0.50
2018-12-15T23:02:10.319Z,-0.40
2018-12-15T23:04:36.295Z,-0.20
2018-12-15T23:07:02.310Z,0.00
2018-12-15T23:09:28.349Z,-0.40
2018-12-15T23:11:54.330Z,-0.40
2018-12-15T23:14:20.318Z,-0.10
2018-12-15T23:16:46.279Z,-0.40
2018-12-15T23:19:12.247Z,-0.40
2018-12-15T23:21:38.209Z,-0.40
2018-12-15T23:24:04.198Z,-0.40
2018-12-15T23:26:30.170Z,-0.20
2018-12-15T23:28:56.142Z,0.00
2018-12-15T23:31:22.137Z,0.00
2018-12-15T23:33:48.085Z,0.00
2018-12-15T23:36:14.071Z,0.00
2018-12-15T23:38:40.049Z,-0.20
2018-12-15T23:41:06.018Z,-0.10
2018-12-15T23:43:32.023Z,0.10
2018-12-15T23:45:58.011Z,0.10
2018-12-15T23:48:24.018Z,-0.10
2018-12-15T23:50:49.980Z,0.20
2018-12-15T23:53:15.946Z,0.30
2018-12-15T23:55:41.933Z,0.40
2018-12-15T23:58:07.907Z,0.20
